Terminal Aerodrome Forecast
Issued by NWS Upton, NY

Current Version | Previous Version | Text Only | Print | Product List | Glossary On
Versions: 1 2 3 4 5 6 7 8 9 10 11 12 13 14 15 16 17 18 19 20 21 22 23 24 25 26 27 28 29 30 31 32
254
FTUS41 KOKX 192034 AAB
TAFISP
TAF AMD
KISP 192034Z 1921/2018 18010KT P6SM SCT025 BKN040
     FM192300 19007KT 4SM -RA BR BKN020 OVC040 WS020/21040KT
     FM200300 20006KT 5SM BR BKN006 OVC015 WS020/23040KT
     FM200700 21006KT 2SM BR OVC006 WS020/23040KT
      TEMPO 2009/2012 1/2SM FG
     FM201300 21008KT 2SM BR BKN006 BKN020
     FM201500 22010KT 6SM BR FEW010 BKN025=

USA.gov is the U.S. government's official web portal to all federal, state and local government web resources and services.